sensor_id;sensor_type;location;lat;lon;timestamp;P1;durP1;ratioP1;P2;durP2;ratioP2
52668;SDS011;59898;52.786;6.892;2023-04-01T00:01:03;9.98;;;7.70;;
52668;SDS011;59898;52.786;6.892;2023-04-01T00:04:25;10.77;;;7.38;;
52668;SDS011;59898;52.786;6.892;2023-04-01T00:07:46;10.57;;;8.18;;
52668;SDS011;59898;52.786;6.892;2023-04-01T00:11:07;9.10;;;6.40;;
52668;SDS011;59898;52.786;6.892;2023-04-01T00:14:27;9.65;;;6.22;;
52668;SDS011;59898;52.786;6.892;2023-04-01T00:17:49;9.15;;;8.05;;
52668;SDS011;59898;52.786;6.892;2023-04-01T00:21:09;9.93;;;7.30;;
52668;SDS011;59898;52.786;6.892;2023-04-01T00:24:30;9.15;;;7.00;;
52668;SDS011;59898;52.786;6.892;2023-04-01T00:27:51;8.57;;;6.45;;
52668;SDS011;59898;52.786;6.892;2023-04-01T00:31:12;8.18;;;7.20;;
52668;SDS011;59898;52.786;6.892;2023-04-01T00:34:34;8.02;;;5.65;;
52668;SDS011;59898;52.786;6.892;2023-04-01T00:37:54;10.10;;;6.60;;
52668;SDS011;59898;52.786;6.892;2023-04-01T00:41:16;9.70;;;6.00;;
52668;SDS011;59898;52.786;6.892;2023-04-01T00:44:37;9.68;;;6.40;;
52668;SDS011;59898;52.786;6.892;2023-04-01T00:47:59;7.38;;;5.13;;
52668;SDS011;59898;52.786;6.892;2023-04-01T00:51:24;7.55;;;6.13;;
52668;SDS011;59898;52.786;6.892;2023-04-01T00:54:49;7.85;;;6.53;;
52668;SDS011;59898;52.786;6.892;2023-04-01T00:58:14;6.55;;;4.85;;
52668;SDS011;59898;52.786;6.892;2023-04-01T01:01:38;7.05;;;5.70;;
52668;SDS011;59898;52.786;6.892;2023-04-01T01:04:59;7.55;;;5.72;;
52668;SDS011;59898;52.786;6.892;2023-04-01T01:08:30;7.60;;;5.20;;
52668;SDS011;59898;52.786;6.892;2023-04-01T01:12:56;8.27;;;5.00;;
52668;SDS011;59898;52.786;6.892;2023-04-01T01:16:15;6.20;;;4.97;;
52668;SDS011;59898;52.786;6.892;2023-04-01T01:19:51;10.57;;;5.78;;
52668;SDS011;59898;52.786;6.892;2023-04-01T01:27:16;7.07;;;4.13;;
52668;SDS011;59898;52.786;6.892;2023-04-01T01:30:49;8.55;;;5.45;;
52668;SDS011;59898;52.786;6.892;2023-04-01T01:38:17;8.88;;;4.90;;
52668;SDS011;59898;52.786;6.892;2023-04-01T01:41:41;14.07;;;4.60;;
52668;SDS011;59898;52.786;6.892;2023-04-01T01:45:05;7.35;;;4.65;;
52668;SDS011;59898;52.786;6.892;2023-04-01T01:48:28;12.30;;;5.15;;
52668;SDS011;59898;52.786;6.892;2023-04-01T01:51:50;9.07;;;5.95;;
52668;SDS011;59898;52.786;6.892;2023-04-01T01:58:55;8.00;;;5.85;;
52668;SDS011;59898;52.786;6.892;2023-04-01T02:02:19;11.43;;;5.93;;
52668;SDS011;59898;52.786;6.892;2023-04-01T02:05:42;9.43;;;6.32;;
52668;SDS011;59898;52.786;6.892;2023-04-01T02:09:05;10.50;;;6.32;;
52668;SDS011;59898;52.786;6.892;2023-04-01T02:12:27;9.10;;;6.50;;
52668;SDS011;59898;52.786;6.892;2023-04-01T02:15:49;9.15;;;7.22;;
52668;SDS011;59898;52.786;6.892;2023-04-01T02:19:15;12.70;;;7.88;;
52668;SDS011;59898;52.786;6.892;2023-04-01T02:22:46;11.18;;;7.57;;
52668;SDS011;59898;52.786;6.892;2023-04-01T02:26:10;9.15;;;7.18;;
52668;SDS011;59898;52.786;6.892;2023-04-01T02:29:32;9.00;;;6.45;;
52668;SDS011;59898;52.786;6.892;2023-04-01T02:32:53;9.98;;;6.97;;
52668;SDS011;59898;52.786;6.892;2023-04-01T02:36:16;10.38;;;6.25;;
52668;SDS011;59898;52.786;6.892;2023-04-01T02:39:37;10.48;;;6.25;;
52668;SDS011;59898;52.786;6.892;2023-04-01T02:42:58;10.15;;;6.90;;
52668;SDS011;59898;52.786;6.892;2023-04-01T02:46:19;12.05;;;6.72;;
52668;SDS011;59898;52.786;6.892;2023-04-01T02:49:40;10.05;;;6.55;;
52668;SDS011;59898;52.786;6.892;2023-04-01T02:53:01;10.50;;;6.63;;
52668;SDS011;59898;52.786;6.892;2023-04-01T02:56:23;9.70;;;6.45;;
52668;SDS011;59898;52.786;6.892;2023-04-01T02:59:46;11.33;;;7.07;;
52668;SDS011;59898;52.786;6.892;2023-04-01T03:03:06;8.20;;;6.20;;
52668;SDS011;59898;52.786;6.892;2023-04-01T03:06:27;9.70;;;6.32;;
52668;SDS011;59898;52.786;6.892;2023-04-01T03:09:48;12.18;;;6.50;;
52668;SDS011;59898;52.786;6.892;2023-04-01T03:13:08;10.80;;;7.45;;
52668;SDS011;59898;52.786;6.892;2023-04-01T03:16:29;11.50;;;7.07;;
52668;SDS011;59898;52.786;6.892;2023-04-01T03:19:50;16.73;;;10.02;;
52668;SDS011;59898;52.786;6.892;2023-04-01T03:23:11;23.83;;;15.68;;
52668;SDS011;59898;52.786;6.892;2023-04-01T03:26:32;28.33;;;19.85;;
52668;SDS011;59898;52.786;6.892;2023-04-01T03:29:53;41.05;;;23.85;;
52668;SDS011;59898;52.786;6.892;2023-04-01T03:33:14;33.58;;;21.65;;
52668;SDS011;59898;52.786;6.892;2023-04-01T03:36:35;31.58;;;21.33;;
52668;SDS011;59898;52.786;6.892;2023-04-01T03:39:55;32.55;;;20.73;;
52668;SDS011;59898;52.786;6.892;2023-04-01T03:43:16;35.72;;;22.02;;
52668;SDS011;59898;52.786;6.892;2023-04-01T03:46:37;21.63;;;13.38;;
52668;SDS011;59898;52.786;6.892;2023-04-01T03:49:58;11.70;;;8.23;;
52668;SDS011;59898;52.786;6.892;2023-04-01T03:53:18;14.98;;;7.97;;
52668;SDS011;59898;52.786;6.892;2023-04-01T03:56:39;8.70;;;6.47;;
52668;SDS011;59898;52.786;6.892;2023-04-01T04:00:00;9.27;;;6.70;;
52668;SDS011;59898;52.786;6.892;2023-04-01T04:03:22;9.55;;;6.45;;
52668;SDS011;59898;52.786;6.892;2023-04-01T04:06:43;7.45;;;5.18;;
52668;SDS011;59898;52.786;6.892;2023-04-01T04:10:03;7.65;;;6.05;;
52668;SDS011;59898;52.786;6.892;2023-04-01T04:13:25;8.00;;;6.03;;
52668;SDS011;59898;52.786;6.892;2023-04-01T04:16:45;8.27;;;5.70;;
52668;SDS011;59898;52.786;6.892;2023-04-01T04:20:06;11.13;;;6.90;;
52668;SDS011;59898;52.786;6.892;2023-04-01T04:23:28;13.07;;;6.82;;
52668;SDS011;59898;52.786;6.892;2023-04-01T04:26:50;9.63;;;6.67;;
52668;SDS011;59898;52.786;6.892;2023-04-01T04:30:11;10.20;;;6.82;;
52668;SDS011;59898;52.786;6.892;2023-04-01T04:33:32;11.32;;;7.03;;
52668;SDS011;59898;52.786;6.892;2023-04-01T04:36:53;9.77;;;7.05;;
52668;SDS011;59898;52.786;6.892;2023-04-01T04:40:14;10.65;;;6.72;;
52668;SDS011;59898;52.786;6.892;2023-04-01T04:43:35;11.38;;;7.75;;
52668;SDS011;59898;52.786;6.892;2023-04-01T04:46:55;11.77;;;6.63;;
52668;SDS011;59898;52.786;6.892;2023-04-01T04:50:16;11.88;;;7.93;;
52668;SDS011;59898;52.786;6.892;2023-04-01T04:53:37;8.73;;;6.55;;
52668;SDS011;59898;52.786;6.892;2023-04-01T04:56:58;10.15;;;8.02;;
52668;SDS011;59898;52.786;6.892;2023-04-01T05:00:19;10.95;;;9.02;;
52668;SDS011;59898;52.786;6.892;2023-04-01T05:03:40;12.07;;;8.40;;
52668;SDS011;59898;52.786;6.892;2023-04-01T05:07:00;12.93;;;9.15;;
52668;SDS011;59898;52.786;6.892;2023-04-01T05:10:21;12.95;;;9.63;;
52668;SDS011;59898;52.786;6.892;2023-04-01T05:13:43;13.15;;;10.13;;
52668;SDS011;59898;52.786;6.892;2023-04-01T05:17:04;14.45;;;10.50;;
52668;SDS011;59898;52.786;6.892;2023-04-01T05:20:28;16.13;;;11.40;;
52668;SDS011;59898;52.786;6.892;2023-04-01T05:23:49;16.23;;;12.75;;
52668;SDS011;59898;52.786;6.892;2023-04-01T05:27:09;18.58;;;12.93;;
52668;SDS011;59898;52.786;6.892;2023-04-01T05:30:30;18.55;;;13.57;;
52668;SDS011;59898;52.786;6.892;2023-04-01T05:33:51;18.90;;;12.88;;
52668;SDS011;59898;52.786;6.892;2023-04-01T05:37:12;21.42;;;14.88;;
52668;SDS011;59898;52.786;6.892;2023-04-01T05:40:32;20.60;;;14.18;;
52668;SDS011;59898;52.786;6.892;2023-04-01T05:43:53;18.23;;;12.98;;
52668;SDS011;59898;52.786;6.892;2023-04-01T05:47:14;22.02;;;14.38;;
52668;SDS011;59898;52.786;6.892;2023-04-01T05:50:35;18.80;;;12.88;;
52668;SDS011;59898;52.786;6.892;2023-04-01T05:53:56;18.63;;;13.40;;
52668;SDS011;59898;52.786;6.892;2023-04-01T05:57:16;19.13;;;12.85;;
52668;SDS011;59898;52.786;6.892;2023-04-01T06:00:37;17.80;;;12.82;;
52668;SDS011;59898;52.786;6.892;2023-04-01T06:03:58;19.17;;;12.23;;
52668;SDS011;59898;52.786;6.892;2023-04-01T06:07:19;18.55;;;12.60;;
52668;SDS011;59898;52.786;6.892;2023-04-01T06:25:28;19.85;;;13.30;;
52668;SDS011;59898;52.786;6.892;2023-04-01T06:39:19;20.10;;;12.95;;
52668;SDS011;59898;52.786;6.892;2023-04-01T06:50:15;16.15;;;11.43;;
52668;SDS011;59898;52.786;6.892;2023-04-01T06:53:55;18.70;;;12.23;;
52668;SDS011;59898;52.786;6.892;2023-04-01T06:57:36;19.83;;;12.48;;
52668;SDS011;59898;52.786;6.892;2023-04-01T07:01:03;16.55;;;11.70;;
52668;SDS011;59898;52.786;6.892;2023-04-01T07:04:30;15.50;;;11.00;;
52668;SDS011;59898;52.786;6.892;2023-04-01T07:07:56;17.85;;;11.98;;
52668;SDS011;59898;52.786;6.892;2023-04-01T07:11:24;15.98;;;10.82;;
52668;SDS011;59898;52.786;6.892;2023-04-01T07:14:49;14.27;;;10.13;;
52668;SDS011;59898;52.786;6.892;2023-04-01T07:18:21;15.77;;;10.45;;
52668;SDS011;59898;52.786;6.892;2023-04-01T07:22:02;16.55;;;10.10;;
52668;SDS011;59898;52.786;6.892;2023-04-01T07:25:27;12.80;;;9.98;;
52668;SDS011;59898;52.786;6.892;2023-04-01T07:28:54;13.82;;;9.20;;
52668;SDS011;59898;52.786;6.892;2023-04-01T07:36:04;12.38;;;9.73;;
52668;SDS011;59898;52.786;6.892;2023-04-01T07:50:27;16.35;;;11.35;;
52668;SDS011;59898;52.786;6.892;2023-04-01T07:54:06;15.50;;;9.45;;
52668;SDS011;59898;52.786;6.892;2023-04-01T07:57:43;13.93;;;9.88;;
52668;SDS011;59898;52.786;6.892;2023-04-01T08:15:28;13.40;;;10.30;;
52668;SDS011;59898;52.786;6.892;2023-04-01T08:19:36;9.27;;;5.78;;
52668;SDS011;59898;52.786;6.892;2023-04-01T08:22:52;7.35;;;5.13;;
52668;SDS011;59898;52.786;6.892;2023-04-01T08:26:37;7.90;;;5.57;;
52668;SDS011;59898;52.786;6.892;2023-04-01T08:30:18;8.70;;;5.20;;
52668;SDS011;59898;52.786;6.892;2023-04-01T08:33:41;8.10;;;4.05;;
52668;SDS011;59898;52.786;6.892;2023-04-01T08:37:05;6.28;;;4.30;;
52668;SDS011;59898;52.786;6.892;2023-04-01T08:55:36;5.22;;;2.53;;
52668;SDS011;59898;52.786;6.892;2023-04-01T09:14:19;5.50;;;4.07;;
52668;SDS011;59898;52.786;6.892;2023-04-01T09:22:20;5.97;;;4.25;;
52668;SDS011;59898;52.786;6.892;2023-04-01T09:40:15;8.93;;;6.05;;
52668;SDS011;59898;52.786;6.892;2023-04-01T09:44:00;10.43;;;6.97;;
52668;SDS011;59898;52.786;6.892;2023-04-01T09:59:03;8.98;;;6.85;;
52668;SDS011;59898;52.786;6.892;2023-04-01T10:10:15;7.57;;;5.70;;
52668;SDS011;59898;52.786;6.892;2023-04-01T10:17:39;6.70;;;5.22;;
52668;SDS011;59898;52.786;6.892;2023-04-01T10:40:17;8.75;;;5.68;;
52668;SDS011;59898;52.786;6.892;2023-04-01T11:36:03;8.57;;;5.97;;
52668;SDS011;59898;52.786;6.892;2023-04-01T11:43:29;6.05;;;4.45;;
52668;SDS011;59898;52.786;6.892;2023-04-01T11:47:10;5.70;;;4.78;;
52668;SDS011;59898;52.786;6.892;2023-04-01T12:01:33;6.18;;;4.72;;
52668;SDS011;59898;52.786;6.892;2023-04-01T12:31:50;5.32;;;3.55;;
52668;SDS011;59898;52.786;6.892;2023-04-01T12:42:44;4.65;;;4.10;;
52668;SDS011;59898;52.786;6.892;2023-04-01T12:50:18;7.00;;;4.95;;
52668;SDS011;59898;52.786;6.892;2023-04-01T13:04:39;6.60;;;4.00;;
52668;SDS011;59898;52.786;6.892;2023-04-01T13:27:42;5.07;;;3.83;;
52668;SDS011;59898;52.786;6.892;2023-04-01T13:56:21;5.03;;;4.00;;
52668;SDS011;59898;52.786;6.892;2023-04-01T13:59:59;5.55;;;4.43;;
52668;SDS011;59898;52.786;6.892;2023-04-01T14:11:34;6.63;;;4.82;;
52668;SDS011;59898;52.786;6.892;2023-04-01T14:23:05;6.00;;;4.60;;
52668;SDS011;59898;52.786;6.892;2023-04-01T14:37:58;7.20;;;5.60;;
52668;SDS011;59898;52.786;6.892;2023-04-01T14:45:20;7.13;;;5.93;;
52668;SDS011;59898;52.786;6.892;2023-04-01T14:49:02;6.75;;;5.78;;
52668;SDS011;59898;52.786;6.892;2023-04-01T14:52:59;6.55;;;5.88;;
52668;SDS011;59898;52.786;6.892;2023-04-01T15:04:41;8.02;;;6.22;;
52668;SDS011;59898;52.786;6.892;2023-04-01T15:08:44;6.95;;;5.88;;
52668;SDS011;59898;52.786;6.892;2023-04-01T15:12:51;5.30;;;4.80;;
52668;SDS011;59898;52.786;6.892;2023-04-01T15:16:22;5.40;;;4.53;;
52668;SDS011;59898;52.786;6.892;2023-04-01T15:26:57;6.03;;;5.07;;
52668;SDS011;59898;52.786;6.892;2023-04-01T15:30:26;5.90;;;5.03;;
52668;SDS011;59898;52.786;6.892;2023-04-01T15:51:47;4.28;;;3.88;;
52668;SDS011;59898;52.786;6.892;2023-04-01T15:55:27;4.55;;;4.03;;
52668;SDS011;59898;52.786;6.892;2023-04-01T16:02:48;5.70;;;4.20;;
52668;SDS011;59898;52.786;6.892;2023-04-01T16:32:00;5.80;;;3.88;;
52668;SDS011;59898;52.786;6.892;2023-04-01T16:42:53;4.28;;;3.45;;
52668;SDS011;59898;52.786;6.892;2023-04-01T16:50:15;9.13;;;5.88;;
52668;SDS011;59898;52.786;6.892;2023-04-01T16:53:43;5.18;;;4.47;;
52668;SDS011;59898;52.786;6.892;2023-04-01T17:00:48;7.40;;;5.57;;
52668;SDS011;59898;52.786;6.892;2023-04-01T17:04:25;6.18;;;5.18;;
52668;SDS011;59898;52.786;6.892;2023-04-01T17:15:12;7.65;;;5.82;;
52668;SDS011;59898;52.786;6.892;2023-04-01T17:18:56;8.45;;;6.03;;
52668;SDS011;59898;52.786;6.892;2023-04-01T17:22:26;8.15;;;6.00;;
52668;SDS011;59898;52.786;6.892;2023-04-01T17:26:17;6.30;;;5.68;;
52668;SDS011;59898;52.786;6.892;2023-04-01T17:51:48;9.35;;;7.50;;
52668;SDS011;59898;52.786;6.892;2023-04-01T17:58:59;7.30;;;5.85;;
52668;SDS011;59898;52.786;6.892;2023-04-01T18:06:03;7.97;;;7.15;;
52668;SDS011;59898;52.786;6.892;2023-04-01T18:13:15;8.57;;;7.32;;
52668;SDS011;59898;52.786;6.892;2023-04-01T18:31:36;10.35;;;7.47;;
52668;SDS011;59898;52.786;6.892;2023-04-01T18:38:50;10.82;;;8.40;;
52668;SDS011;59898;52.786;6.892;2023-04-01T18:42:31;8.70;;;7.55;;
52668;SDS011;59898;52.786;6.892;2023-04-01T18:46:01;9.55;;;8.25;;
52668;SDS011;59898;52.786;6.892;2023-04-01T18:53:12;10.45;;;8.93;;
52668;SDS011;59898;52.786;6.892;2023-04-01T18:57:37;10.57;;;9.02;;
52668;SDS011;59898;52.786;6.892;2023-04-01T19:00:45;15.13;;;12.25;;
52668;SDS011;59898;52.786;6.892;2023-04-01T19:04:39;9.27;;;8.48;;
52668;SDS011;59898;52.786;6.892;2023-04-01T19:11:48;13.18;;;10.40;;
52668;SDS011;59898;52.786;6.892;2023-04-01T19:19:14;10.15;;;8.57;;
52668;SDS011;59898;52.786;6.892;2023-04-01T19:37:51;12.38;;;9.40;;
52668;SDS011;59898;52.786;6.892;2023-04-01T19:41:50;11.30;;;8.82;;
52668;SDS011;59898;52.786;6.892;2023-04-01T19:45:45;10.00;;;9.00;;
52668;SDS011;59898;52.786;6.892;2023-04-01T19:52:57;8.85;;;7.85;;
52668;SDS011;59898;52.786;6.892;2023-04-01T19:56:23;9.43;;;7.50;;
52668;SDS011;59898;52.786;6.892;2023-04-01T20:03:54;11.35;;;7.80;;
52668;SDS011;59898;52.786;6.892;2023-04-01T20:11:06;9.68;;;8.48;;
52668;SDS011;59898;52.786;6.892;2023-04-01T20:14:47;11.82;;;8.00;;
52668;SDS011;59898;52.786;6.892;2023-04-01T20:18:19;10.15;;;8.05;;
52668;SDS011;59898;52.786;6.892;2023-04-01T20:21:52;11.32;;;8.18;;
52668;SDS011;59898;52.786;6.892;2023-04-01T20:25:32;10.65;;;7.80;;
52668;SDS011;59898;52.786;6.892;2023-04-01T20:32:49;9.10;;;7.30;;
52668;SDS011;59898;52.786;6.892;2023-04-01T20:36:39;11.70;;;8.30;;
52668;SDS011;59898;52.786;6.892;2023-04-01T20:40:44;10.23;;;7.78;;
52668;SDS011;59898;52.786;6.892;2023-04-01T20:44:19;12.10;;;8.10;;
52668;SDS011;59898;52.786;6.892;2023-04-01T20:51:43;10.25;;;7.68;;
52668;SDS011;59898;52.786;6.892;2023-04-01T20:55:29;8.85;;;7.95;;
52668;SDS011;59898;52.786;6.892;2023-04-01T20:59:27;16.33;;;9.15;;
52668;SDS011;59898;52.786;6.892;2023-04-01T21:07:39;13.23;;;8.90;;
52668;SDS011;59898;52.786;6.892;2023-04-01T21:22:05;12.35;;;9.52;;
52668;SDS011;59898;52.786;6.892;2023-04-01T21:36:44;15.07;;;10.02;;
52668;SDS011;59898;52.786;6.892;2023-04-01T22:13:17;12.73;;;9.38;;
52668;SDS011;59898;52.786;6.892;2023-04-01T22:16:41;11.88;;;7.32;;
52668;SDS011;59898;52.786;6.892;2023-04-01T22:20:21;13.20;;;9.13;;
52668;SDS011;59898;52.786;6.892;2023-04-01T22:24:08;10.50;;;7.50;;
52668;SDS011;59898;52.786;6.892;2023-04-01T22:27:46;11.13;;;8.52;;
52668;SDS011;59898;52.786;6.892;2023-04-01T22:31:21;11.35;;;8.05;;
52668;SDS011;59898;52.786;6.892;2023-04-01T22:34:57;13.82;;;7.80;;
52668;SDS011;59898;52.786;6.892;2023-04-01T22:41:51;12.38;;;8.20;;
52668;SDS011;59898;52.786;6.892;2023-04-01T22:45:31;12.65;;;8.35;;
52668;SDS011;59898;52.786;6.892;2023-04-01T22:49:00;11.65;;;7.82;;
52668;SDS011;59898;52.786;6.892;2023-04-01T22:52:36;10.52;;;7.10;;
52668;SDS011;59898;52.786;6.892;2023-04-01T22:56:01;12.55;;;7.82;;
52668;SDS011;59898;52.786;6.892;2023-04-01T23:03:04;10.90;;;8.80;;
52668;SDS011;59898;52.786;6.892;2023-04-01T23:06:39;10.88;;;7.85;;
52668;SDS011;59898;52.786;6.892;2023-04-01T23:10:05;11.25;;;8.25;;
52668;SDS011;59898;52.786;6.892;2023-04-01T23:13:44;14.10;;;8.02;;
52668;SDS011;59898;52.786;6.892;2023-04-01T23:17:18;10.88;;;9.23;;
52668;SDS011;59898;52.786;6.892;2023-04-01T23:20:52;11.18;;;7.50;;
52668;SDS011;59898;52.786;6.892;2023-04-01T23:27:42;13.55;;;8.07;;
52668;SDS011;59898;52.786;6.892;2023-04-01T23:35:18;13.13;;;7.30;;
52668;SDS011;59898;52.786;6.892;2023-04-01T23:38:39;24.98;;;7.57;;
52668;SDS011;59898;52.786;6.892;2023-04-01T23:42:03;10.48;;;7.55;;
52668;SDS011;59898;52.786;6.892;2023-04-01T23:45:44;10.80;;;8.52;;
52668;SDS011;59898;52.786;6.892;2023-04-01T23:49:05;10.15;;;7.32;;
52668;SDS011;59898;52.786;6.892;2023-04-01T23:52:46;9.05;;;6.90;;
52668;SDS011;59898;52.786;6.892;2023-04-01T23:56:09;9.60;;;6.68;;
52668;SDS011;59898;52.786;6.892;2023-04-01T23:59:31;10.00;;;7.43;;
